Time,TemperatureF,DewpointF,PressureIn,WindDirection,WindDirectionDegrees,WindSpeedMPH,WindSpeedGustMPH,Humidity,HourlyPrecipIn,Conditions,Clouds,dailyrainin,SoftwareType,DateUTC
2013-11-16 01:12:00,53.0,-99.9,-100.00,SSE,158,2.0,4.0,-999,-99.99,,,-99.99,,2013-11-16 08:12:00,
2013-11-16 02:22:00,53.0,-99.9,-100.00,ESE,123,3.0,6.0,-999,-99.99,,,-99.99,,2013-11-16 09:22:00,
2013-11-16 02:43:00,52.0,-99.9,-100.00,SE,146,4.0,6.0,-999,-99.99,,,-99.99,,2013-11-16 09:43:00,
2013-11-16 02:53:00,52.0,-99.9,-100.00,SE,146,4.0,6.0,-999,-99.99,,,-99.99,,2013-11-16 09:53:00,
2013-11-16 03:10:00,50.0,-99.9,-100.00,ESE,107,2.0,5.0,-999,-99.99,,,-99.99,,2013-11-16 10:10:00,
2013-11-16 03:52:00,50.0,-99.9,-100.00,ESE,107,2.0,5.0,-999,-99.99,,,-99.99,,2013-11-16 10:52:00,
2013-11-16 04:02:00,50.0,-99.9,-100.00,ESE,107,2.0,5.0,-999,-99.99,,,-99.99,,2013-11-16 11:02:00,
2013-11-16 04:20:00,51.0,-99.9,-100.00,SSE,163,3.0,6.0,-999,-99.99,,,-99.99,,2013-11-16 11:20:00,
2013-11-16 04:53:00,51.0,-99.9,-100.00,SSW,200,1.0,4.0,-999,-99.99,,,-99.99,,2013-11-16 11:53:00,
2013-11-16 05:10:00,51.0,-99.9,-100.00,SE,132,3.0,7.0,-999,-99.99,,,-99.99,,2013-11-16 12:10:00,
2013-11-16 05:12:00,51.0,-99.9,-100.00,SSE,163,3.0,6.0,-999,-99.99,,,-99.99,,2013-11-16 12:12:00,
2013-11-16 05:52:00,51.0,-99.9,-100.00,SE,132,3.0,7.0,-999,-99.99,,,-99.99,,2013-11-16 12:52:00,
2013-11-16 06:00:00,49.0,-99.9,-100.00,ESE,108,4.0,6.0,-999,-99.99,,,-99.99,,2013-11-16 13:00:00,
2013-11-16 06:02:00,51.0,-99.9,-100.00,SE,132,3.0,7.0,-999,-99.99,,,-99.99,,2013-11-16 13:02:00,
2013-11-16 06:40:00,47.0,-99.9,-100.00,ENE,74,2.0,4.0,-999,-99.99,,,-99.99,,2013-11-16 13:40:00,
2013-11-16 06:52:00,49.0,-99.9,-100.00,ESE,108,4.0,6.0,-999,-99.99,,,-99.99,,2013-11-16 13:52:00,
2013-11-16 07:20:00,50.0,-99.9,-100.00,South,174,1.0,6.0,-999,-99.99,,,-99.99,,2013-11-16 14:20:00,
2013-11-16 07:22:00,47.0,-99.9,-100.00,ENE,74,2.0,4.0,-999,-99.99,,,-99.99,,2013-11-16 14:22:00,
2013-11-16 07:32:00,47.0,-99.9,-100.00,ENE,74,2.0,4.0,-999,-99.99,,,-99.99,,2013-11-16 14:32:00,
2013-11-16 07:50:00,52.0,-99.9,-100.00,SSE,155,3.0,5.0,-999,-99.99,,,-99.99,,2013-11-16 14:50:00,
2013-11-16 08:11:00,50.0,-99.9,-100.00,South,174,1.0,6.0,-999,-99.99,,,-99.99,,2013-11-16 15:11:00,
2013-11-16 08:43:00,52.0,-99.9,-100.00,SSE,155,3.0,5.0,-999,-99.99,,,-99.99,,2013-11-16 15:43:00,
2013-11-16 09:23:00,58.0,-99.9,-100.00,ESE,120,4.0,5.0,-999,-99.99,,,-99.99,,2013-11-16 16:23:00,
2013-11-16 09:33:00,58.0,-99.9,-100.00,ESE,120,4.0,5.0,-999,-99.99,,,-99.99,,2013-11-16 16:33:00,
2013-11-16 11:40:00,66.0,-99.9,-100.00,SSW,193,6.0,8.0,-999,-99.99,,,-99.99,,2013-11-16 18:40:00,
2013-11-16 11:52:00,65.0,-99.9,-100.00,South,175,7.0,10.0,-999,-99.99,,,-99.99,,2013-11-16 18:52:00,
2013-11-16 12:12:00,65.0,-99.9,-100.00,SSW,204,6.0,8.0,-999,-99.99,,,-99.99,,2013-11-16 19:12:00,
2013-11-16 12:22:00,66.0,-99.9,-100.00,SSW,193,6.0,8.0,-999,-99.99,,,-99.99,,2013-11-16 19:22:00,
2013-11-16 12:32:00,66.0,-99.9,-100.00,SSW,193,6.0,8.0,-999,-99.99,,,-99.99,,2013-11-16 19:32:00,
2013-11-16 13:40:00,71.0,-99.9,-100.00,SSW,212,5.0,11.0,-999,-99.99,,,-99.99,,2013-11-16 20:40:00,
2013-11-16 14:02:00,69.0,-99.9,-100.00,SSW,212,4.0,8.0,-999,-99.99,,,-99.99,,2013-11-16 21:02:00,
2013-11-16 14:22:00,71.0,-99.9,-100.00,SSW,212,5.0,11.0,-999,-99.99,,,-99.99,,2013-11-16 21:22:00,
2013-11-16 14:34:00,71.0,-99.9,-100.00,SSW,212,5.0,11.0,-999,-99.99,,,-99.99,,2013-11-16 21:34:00,
2013-11-16 14:54:00,70.0,-99.9,-100.00,South,189,7.0,13.0,-999,-99.99,,,-99.99,,2013-11-16 21:54:00,
2013-11-16 15:13:00,71.0,-99.9,-100.00,SSW,204,6.0,13.0,-999,-99.99,,,-99.99,,2013-11-16 22:13:00,
2013-11-16 16:22:00,69.0,-99.9,-100.00,SSW,210,4.0,9.0,-999,-99.99,,,-99.99,,2013-11-16 23:22:00,
2013-11-16 16:34:00,69.0,-99.9,-100.00,SSW,210,4.0,9.0,-999,-99.99,,,-99.99,,2013-11-16 23:34:00,
2013-11-16 16:43:00,69.0,-99.9,-100.00,SSW,210,4.0,9.0,-999,-99.99,,,-99.99,,2013-11-16 23:43:00,
2013-11-16 17:20:00,65.0,-99.9,-100.00,South,190,2.0,5.0,-999,-99.99,,,-99.99,,2013-11-17 00:20:00,
2013-11-16 17:52:00,65.0,-99.9,-100.00,SW,223,1.0,7.0,-999,-99.99,,,-99.99,,2013-11-17 00:52:00,
2013-11-16 18:12:00,65.0,-99.9,-100.00,South,190,2.0,5.0,-999,-99.99,,,-99.99,,2013-11-17 01:12:00,
2013-11-16 19:12:00,62.0,-99.9,-100.00,SSW,206,3.0,5.0,-999,-99.99,,,-99.99,,2013-11-17 02:12:00,
2013-11-16 19:22:00,62.0,-99.9,-100.00,SSW,206,3.0,5.0,-999,-99.99,,,-99.99,,2013-11-17 02:22:00,
2013-11-16 21:53:00,57.0,-99.9,-100.00,West,276,3.0,4.0,-999,-99.99,,,-99.99,,2013-11-17 04:53:00,
2013-11-16 22:13:00,58.0,-99.9,-100.00,ESE,118,4.0,5.0,-999,-99.99,,,-99.99,,2013-11-17 05:13:00,
2013-11-16 22:24:00,58.0,-99.9,-100.00,ESE,118,4.0,5.0,-999,-99.99,,,-99.99,,2013-11-17 05:24:00,
2013-11-16 22:44:00,57.0,-99.9,-100.00,SSE,154,3.0,6.0,-999,-99.99,,,-99.99,,2013-11-17 05:44:00,
2013-11-16 22:54:00,57.0,-99.9,-100.00,SSE,154,3.0,6.0,-999,-99.99,,,-99.99,,2013-11-17 05:54:00,
2013-11-16 23:10:00,51.0,-99.9,-100.00,ESE,115,2.0,3.0,-999,-99.99,,,-99.99,,2013-11-17 06:10:00,
2013-11-16 23:52:00,51.0,-99.9,-100.00,ESE,115,2.0,3.0,-999,-99.99,,,-99.99,,2013-11-17 06:52:00,